Terminal Aerodrome Forecast
Issued by NWS

Home | Current Version | Previous Version | Graphics & Text | Print | Product List | Glossary On
Versions: 1 2 3 4 5 6 7 8 9 10 11 12 13 14 15
032
FTUS42 KMHX 171135
TAFPGV
TAF
KPGV 171135Z 1712/1812 00000KT P6SM BKN140
     FM171800 02006KT P6SM VCSH BKN060
     FM172000 02009KT 5SM -RASN SCT005 OVC020
     FM172200 02010KT 2SM -SN OVC005
     FM180330 35010G18KT P6SM BKN005
     FM180500 34009KT P6SM SCT040
      AMD LTD TO CLD VIS AND WIND=

USA.gov is the U.S. government's official web portal to all federal, state and local government web resources and services.